createdAt,value
2022-09-07T00:01:39.501Z,96.40
2022-09-07T00:03:41.447Z,96.50
2022-09-07T00:05:45.722Z,96.40
2022-09-07T00:07:47.906Z,96.10
2022-09-07T00:09:51.406Z,96.40
2022-09-07T00:11:53.367Z,96.80
2022-09-07T00:13:55.978Z,97.10
2022-09-07T00:15:58.274Z,97.40
2022-09-07T00:18:00.515Z,97.40
2022-09-07T00:20:03.125Z,97.50
2022-09-07T00:22:05.382Z,97.90
2022-09-07T00:24:07.519Z,98.10
2022-09-07T00:26:15.652Z,98.40
2022-09-07T00:28:17.558Z,98.50
2022-09-07T00:30:19.470Z,98.60
2022-09-07T00:32:21.532Z,98.60
2022-09-07T00:34:23.722Z,98.70
2022-09-07T00:36:26.214Z,98.80
2022-09-07T00:38:28.426Z,99.00
2022-09-07T00:40:30.991Z,99.00
2022-09-07T00:42:32.898Z,98.80
2022-09-07T00:45:15.530Z,98.40
2022-09-07T00:47:32.277Z,99.20
2022-09-07T00:49:35.287Z,98.80
2022-09-07T00:51:46.229Z,98.60
2022-09-07T00:53:58.444Z,98.50
2022-09-07T00:56:02.803Z,98.40
2022-09-07T00:58:05.818Z,98.10
2022-09-07T01:00:08.814Z,98.00
2022-09-07T01:02:13.510Z,97.90
2022-09-07T01:04:17.306Z,98.00
2022-09-07T01:06:32.227Z,98.00
2022-09-07T01:08:36.025Z,98.00
2022-09-07T01:10:38.875Z,97.90
2022-09-07T01:12:40.855Z,98.00
2022-09-07T01:14:51.100Z,98.10
2022-09-07T01:17:14.781Z,98.20
2022-09-07T01:20:10.723Z,98.70
2022-09-07T01:22:12.603Z,99.20
2022-09-07T01:24:38.769Z,98.30
2022-09-07T01:27:11.800Z,98.90
2022-09-07T01:29:25.050Z,98.90
2022-09-07T01:31:51.583Z,99.00
2022-09-07T01:34:15.290Z,99.90
2022-09-07T01:36:29.002Z,99.90
2022-09-07T01:38:54.534Z,99.90
2022-09-07T01:41:22.181Z,99.90
2022-09-07T01:43:37.490Z,99.90
2022-09-07T01:45:41.325Z,99.90
2022-09-07T01:47:48.422Z,99.90
2022-09-07T01:50:08.512Z,99.90
2022-09-07T01:52:16.939Z,99.90
2022-09-07T01:54:39.204Z,99.90
2022-09-07T01:56:46.922Z,99.90
2022-09-07T01:58:55.378Z,99.90
2022-09-07T02:01:11.307Z,99.90
2022-09-07T02:03:31.498Z,99.90
2022-09-07T02:05:41.711Z,99.90
2022-09-07T02:07:51.128Z,99.90
2022-09-07T02:10:31.434Z,99.90
2022-09-07T02:12:59.482Z,99.90
2022-09-07T02:15:07.181Z,99.90
2022-09-07T02:17:15.011Z,99.90
2022-09-07T02:19:20.197Z,99.90
2022-09-07T02:21:28.457Z,99.90
2022-09-07T02:23:37.323Z,99.90
2022-09-07T02:25:43.859Z,99.90
2022-09-07T02:27:52.995Z,99.90
2022-09-07T02:29:54.945Z,99.90
2022-09-07T02:31:56.946Z,99.90
2022-09-07T02:34:01.397Z,99.90
2022-09-07T02:36:05.165Z,99.90
2022-09-07T02:38:08.152Z,99.90
2022-09-07T02:40:11.268Z,99.90
2022-09-07T02:42:13.308Z,99.90
2022-09-07T02:44:25.220Z,99.90
2022-09-07T02:46:48.413Z,99.90
2022-09-07T02:49:02.377Z,99.90
2022-09-07T02:51:33.438Z,99.90
2022-09-07T02:53:56.509Z,99.90
2022-09-07T02:56:17.092Z,99.90
2022-09-07T02:58:52.373Z,99.90
2022-09-07T03:00:59.096Z,99.90
2022-09-07T03:03:24.384Z,99.90
2022-09-07T03:05:37.693Z,99.90
2022-09-07T03:07:49.581Z,99.90
2022-09-07T03:09:55.129Z,99.90
2022-09-07T03:11:57.718Z,99.90
2022-09-07T03:14:23.291Z,99.90
2022-09-07T03:16:25.269Z,99.90
2022-09-07T03:18:28.462Z,99.90
2022-09-07T03:20:30.385Z,99.90
2022-09-07T03:22:33.489Z,99.90
2022-09-07T03:24:36.785Z,99.90
2022-09-07T03:26:43.438Z,99.90
2022-09-07T03:28:47.891Z,99.90
2022-09-07T03:30:49.915Z,99.90
2022-09-07T03:32:51.945Z,99.90
2022-09-07T03:34:53.830Z,99.90
2022-09-07T03:36:55.775Z,99.90
2022-09-07T03:38:59.427Z,99.90
2022-09-07T03:41:03.470Z,99.90
2022-09-07T03:43:05.296Z,99.90
2022-09-07T03:45:09.324Z,99.90
2022-09-07T03:47:11.380Z,99.90
2022-09-07T03:49:14.837Z,99.90
2022-09-07T03:51:19.793Z,99.90
2022-09-07T03:53:21.796Z,99.90
2022-09-07T03:55:23.715Z,99.90
2022-09-07T03:57:25.788Z,99.90
2022-09-07T03:59:27.877Z,99.90
2022-09-07T04:01:29.935Z,99.90
2022-09-07T04:03:31.969Z,99.90
2022-09-07T04:05:33.927Z,99.90
2022-09-07T04:07:35.989Z,99.90
2022-09-07T04:09:37.944Z,99.90
2022-09-07T04:11:42.604Z,99.90
2022-09-07T04:13:45.858Z,99.90
2022-09-07T04:15:50.985Z,99.90
2022-09-07T04:17:55.686Z,99.90
2022-09-07T04:19:57.581Z,99.90
2022-09-07T04:21:59.606Z,99.90
2022-09-07T04:24:01.688Z,99.90
2022-09-07T04:26:03.626Z,99.90
2022-09-07T04:28:05.566Z,99.90
2022-09-07T04:30:09.273Z,99.90
2022-09-07T04:32:15.513Z,99.90
2022-09-07T04:34:17.876Z,99.90
2022-09-07T04:36:20.728Z,99.90
2022-09-07T04:38:22.658Z,99.90
2022-09-07T04:40:24.546Z,99.90
2022-09-07T04:42:26.477Z,99.90
2022-09-07T04:44:28.461Z,99.90
2022-09-07T04:46:33.955Z,99.90
2022-09-07T04:48:35.862Z,99.90
2022-09-07T04:50:37.873Z,99.90
2022-09-07T04:52:39.814Z,99.90
2022-09-07T04:54:42.638Z,99.90
2022-09-07T04:56:44.531Z,99.90
2022-09-07T04:58:47.648Z,99.90
2022-09-07T05:00:49.625Z,99.90
2022-09-07T05:02:51.797Z,99.90
2022-09-07T05:04:53.772Z,99.90
2022-09-07T05:06:55.874Z,99.90
2022-09-07T05:08:59.058Z,99.90
2022-09-07T05:11:01.017Z,99.90
2022-09-07T05:13:03.084Z,99.90
2022-09-07T05:15:05.627Z,99.90
2022-09-07T05:17:07.924Z,99.90
2022-09-07T05:19:13.525Z,99.90
2022-09-07T05:21:23.798Z,99.90
2022-09-07T05:23:26.356Z,99.90
2022-09-07T05:25:29.228Z,99.90
2022-09-07T05:27:31.335Z,99.90
2022-09-07T05:31:57.854Z,99.90
2022-09-07T05:36:27.087Z,99.90
2022-09-07T05:38:30.045Z,99.90
2022-09-07T05:40:35.170Z,99.90
2022-09-07T05:42:40.446Z,99.90
2022-09-07T05:46:44.773Z,99.90
2022-09-07T05:48:47.104Z,99.90
2022-09-07T05:50:52.854Z,99.90
2022-09-07T05:52:54.925Z,99.90
2022-09-07T05:55:13.041Z,99.90
2022-09-07T05:57:18.813Z,99.90
2022-09-07T05:59:20.732Z,99.90
2022-09-07T06:01:22.892Z,99.90
2022-09-07T06:03:25.059Z,99.90
2022-09-07T06:05:27.062Z,99.90
2022-09-07T06:07:29.030Z,99.90
2022-09-07T06:09:31.378Z,99.90
2022-09-07T06:11:33.445Z,99.90
2022-09-07T06:13:36.015Z,99.90
2022-09-07T06:15:37.995Z,99.90
2022-09-07T06:17:40.137Z,99.90
2022-09-07T06:19:42.106Z,99.90
2022-09-07T06:21:44.085Z,99.90
2022-09-07T06:23:47.194Z,99.90
2022-09-07T06:25:50.029Z,99.90
2022-09-07T06:27:52.438Z,99.90
2022-09-07T06:29:54.586Z,99.90
2022-09-07T06:34:19.318Z,99.90
2022-09-07T06:36:29.563Z,99.90
2022-09-07T06:38:33.672Z,99.90
2022-09-07T06:40:35.613Z,99.90
2022-09-07T06:42:38.540Z,99.90
2022-09-07T06:44:40.591Z,99.90
2022-09-07T06:49:04.646Z,99.90
2022-09-07T06:51:19.814Z,99.90
2022-09-07T06:53:38.573Z,99.90
2022-09-07T06:55:45.742Z,99.90
2022-09-07T06:57:47.626Z,99.90
2022-09-07T06:59:49.665Z,99.90
2022-09-07T07:01:51.875Z,99.90
2022-09-07T07:03:54.421Z,99.90
2022-09-07T07:05:57.225Z,99.90
2022-09-07T07:07:59.267Z,99.90
2022-09-07T07:10:01.220Z,99.90
2022-09-07T07:12:03.493Z,99.90
2022-09-07T07:14:05.863Z,99.90
2022-09-07T07:16:16.551Z,99.90
2022-09-07T07:18:21.116Z,99.90
2022-09-07T07:20:34.648Z,99.90
2022-09-07T07:22:52.248Z,99.90
2022-09-07T07:24:54.245Z,99.90
2022-09-07T07:26:56.610Z,99.90
2022-09-07T07:31:07.374Z,99.90
2022-09-07T07:33:16.364Z,99.90
2022-09-07T07:35:18.505Z,99.90
2022-09-07T07:37:22.767Z,99.90
2022-09-07T07:46:30.167Z,99.90
2022-09-07T07:48:34.453Z,99.90
2022-09-07T07:50:36.577Z,99.90
2022-09-07T07:55:42.916Z,99.90
2022-09-07T07:57:25.166Z,99.90
2022-09-07T07:59:27.228Z,99.90
2022-09-07T08:01:29.158Z,99.90
2022-09-07T08:03:33.928Z,99.90
2022-09-07T08:05:39.139Z,99.90
2022-09-07T08:07:41.084Z,99.90
2022-09-07T08:09:44.611Z,99.90
2022-09-07T08:11:47.224Z,99.90
2022-09-07T08:13:51.055Z,99.90
2022-09-07T08:15:53.144Z,99.90
2022-09-07T08:17:55.080Z,99.90
2022-09-07T08:19:57.326Z,99.90
2022-09-07T08:21:59.414Z,99.90
2022-09-07T08:24:01.436Z,99.90
2022-09-07T08:26:03.807Z,99.90
2022-09-07T08:28:05.981Z,99.90
2022-09-07T08:30:08.941Z,99.90
2022-09-07T08:32:10.929Z,99.90
2022-09-07T08:34:13.667Z,99.90
2022-09-07T08:36:18.045Z,99.90
2022-09-07T08:38:21.119Z,99.90
2022-09-07T08:40:23.201Z,99.90
2022-09-07T08:42:51.903Z,99.90
2022-09-07T08:45:00.459Z,99.90
2022-09-07T08:47:17.015Z,99.90
2022-09-07T08:49:42.585Z,99.90
2022-09-07T08:51:49.380Z,99.90
2022-09-07T08:53:51.773Z,99.90
2022-09-07T08:56:02.172Z,99.90
2022-09-07T08:58:45.323Z,99.90
2022-09-07T09:00:42.723Z,99.90
2022-09-07T09:02:46.449Z,99.90
2022-09-07T09:05:22.104Z,99.90
2022-09-07T09:07:29.139Z,99.90
2022-09-07T09:09:58.584Z,99.90
2022-09-07T09:12:17.754Z,99.90
2022-09-07T09:14:35.817Z,99.90
2022-09-07T09:16:43.164Z,99.90
2022-09-07T09:19:15.517Z,99.90
2022-09-07T09:21:19.408Z,99.90
2022-09-07T09:23:26.962Z,99.90
2022-09-07T09:25:34.678Z,99.90
2022-09-07T09:27:36.521Z,99.90
2022-09-07T09:29:38.888Z,99.90
2022-09-07T09:31:40.817Z,99.90
2022-09-07T09:33:42.847Z,99.90
2022-09-07T09:35:50.043Z,99.90
2022-09-07T09:37:52.054Z,99.90
2022-09-07T09:40:02.214Z,99.90
2022-09-07T09:42:10.562Z,99.90
2022-09-07T09:44:16.162Z,99.90
2022-09-07T09:46:33.681Z,99.90
2022-09-07T09:48:40.032Z,99.90
2022-09-07T09:53:32.711Z,99.90
2022-09-07T09:55:38.261Z,99.90
2022-09-07T10:00:27.889Z,99.90
2022-09-07T10:04:54.993Z,99.90
2022-09-07T10:07:19.269Z,99.90
2022-09-07T10:09:24.541Z,99.90
2022-09-07T10:14:25.813Z,99.90
2022-09-07T10:16:39.915Z,99.90
2022-09-07T10:18:56.105Z,99.90
2022-09-07T10:21:14.647Z,99.90
2022-09-07T10:23:24.393Z,99.90
2022-09-07T10:25:36.814Z,99.90
2022-09-07T10:27:43.079Z,99.90
2022-09-07T10:29:45.064Z,99.90
2022-09-07T10:31:54.869Z,99.50
2022-09-07T10:34:26.382Z,99.90
2022-09-07T10:36:43.461Z,99.90
2022-09-07T10:38:53.850Z,99.90
2022-09-07T10:41:07.503Z,99.90
2022-09-07T10:43:44.085Z,99.90
2022-09-07T10:46:15.330Z,99.90
2022-09-07T10:48:45.685Z,99.90
2022-09-07T10:50:52.034Z,99.90
2022-09-07T10:53:46.615Z,99.90
2022-09-07T10:56:15.872Z,99.90
2022-09-07T10:59:03.475Z,99.40
2022-09-07T11:01:35.254Z,98.60
2022-09-07T11:03:58.768Z,96.90
2022-09-07T11:06:22.074Z,97.00
2022-09-07T11:09:15.383Z,97.10
2022-09-07T11:10:59.138Z,97.10
2022-09-07T11:13:05.818Z,97.10
2022-09-07T11:15:13.388Z,96.20
2022-09-07T11:17:23.505Z,95.30
2022-09-07T11:19:37.195Z,95.30
2022-09-07T11:21:56.409Z,94.60
2022-09-07T11:24:09.248Z,94.30
2022-09-07T11:26:37.224Z,93.40
2022-09-07T11:29:29.187Z,93.10
2022-09-07T11:31:32.055Z,94.10
2022-09-07T11:36:25.126Z,94.10
2022-09-07T11:38:35.611Z,92.80
2022-09-07T11:40:50.681Z,92.50
2022-09-07T11:43:08.068Z,93.00
2022-09-07T11:45:31.988Z,93.60
2022-09-07T11:47:43.326Z,95.20
2022-09-07T11:49:50.811Z,94.60
2022-09-07T11:52:05.875Z,94.80
2022-09-07T11:54:48.881Z,94.10
2022-09-07T11:56:57.725Z,93.40
2022-09-07T11:59:22.539Z,92.70
2022-09-07T12:01:51.856Z,92.80
2022-09-07T12:03:56.675Z,92.00
2022-09-07T12:06:23.459Z,92.00
2022-09-07T12:08:43.420Z,91.20
2022-09-07T12:11:11.509Z,91.40
2022-09-07T12:13:26.993Z,90.80
2022-09-07T12:15:52.058Z,88.80
2022-09-07T12:18:14.128Z,90.00
2022-09-07T12:20:18.274Z,89.60
2022-09-07T12:22:22.021Z,90.20
2022-09-07T12:24:29.552Z,90.50
2022-09-07T12:26:34.852Z,91.10
2022-09-07T12:28:36.708Z,90.00
2022-09-07T12:30:38.604Z,90.00
2022-09-07T12:32:56.096Z,89.40
2022-09-07T12:34:58.798Z,89.00
2022-09-07T12:37:02.409Z,89.40
2022-09-07T12:39:25.717Z,89.10
2022-09-07T12:41:47.330Z,90.20
2022-09-07T12:43:49.577Z,86.00
2022-09-07T12:45:52.793Z,85.90
2022-09-07T12:48:02.705Z,86.60
2022-09-07T12:50:25.539Z,86.90
2022-09-07T12:52:33.430Z,88.00
2022-09-07T12:55:04.462Z,90.00
2022-09-07T12:57:46.543Z,89.60
2022-09-07T13:00:12.109Z,88.80
2022-09-07T13:02:38.889Z,87.20
2022-09-07T13:04:43.683Z,85.40
2022-09-07T13:07:06.895Z,85.50
2022-09-07T13:09:34.278Z,84.80
2022-09-07T13:11:39.329Z,85.30
2022-09-07T13:16:06.289Z,86.50
2022-09-07T13:18:27.491Z,85.50
2022-09-07T13:20:36.085Z,84.80
2022-09-07T13:22:42.007Z,84.30
2022-09-07T13:24:58.456Z,84.70
2022-09-07T13:27:06.353Z,85.80
2022-09-07T13:29:14.413Z,86.00
2022-09-07T13:31:45.368Z,85.60
2022-09-07T13:33:52.634Z,82.50
2022-09-07T13:36:00.647Z,84.00
2022-09-07T13:38:04.087Z,85.20
2022-09-07T13:40:11.824Z,84.90
2022-09-07T13:42:20.372Z,84.00
2022-09-07T13:44:30.540Z,83.80
2022-09-07T13:46:46.850Z,82.60
2022-09-07T13:49:00.800Z,82.10
2022-09-07T13:51:20.501Z,84.70
2022-09-07T13:53:42.782Z,85.10
2022-09-07T13:56:20.428Z,85.40
2022-09-07T13:58:38.228Z,84.20
2022-09-07T14:01:12.164Z,84.80
2022-09-07T14:03:16.850Z,81.80
2022-09-07T14:05:22.481Z,81.30
2022-09-07T14:07:26.255Z,82.50
2022-09-07T14:09:28.356Z,83.30
2022-09-07T14:11:41.472Z,80.90
2022-09-07T14:13:43.460Z,82.20
2022-09-07T14:15:48.524Z,82.10
2022-09-07T14:18:03.793Z,82.00
2022-09-07T14:20:07.158Z,82.90
2022-09-07T14:22:11.739Z,84.00
2022-09-07T14:24:24.165Z,83.10
2022-09-07T14:26:27.317Z,82.70
2022-09-07T14:28:31.877Z,84.30
2022-09-07T14:30:33.994Z,84.20
2022-09-07T14:32:36.205Z,82.80
2022-09-07T14:34:38.830Z,81.10
2022-09-07T14:36:45.894Z,81.70
2022-09-07T14:39:04.977Z,81.10
2022-09-07T14:41:13.462Z,81.40
2022-09-07T14:43:36.797Z,82.30
2022-09-07T14:45:38.916Z,82.30
2022-09-07T14:47:40.889Z,83.30
2022-09-07T14:49:43.610Z,84.20
2022-09-07T14:51:48.460Z,83.90
2022-09-07T14:53:52.345Z,83.50
2022-09-07T14:56:09.243Z,83.30
2022-09-07T14:58:13.863Z,83.60
2022-09-07T15:00:32.892Z,83.10
2022-09-07T15:02:38.045Z,83.00
2022-09-07T15:04:40.066Z,83.20
2022-09-07T15:09:07.241Z,81.90
2022-09-07T15:11:36.439Z,81.30
2022-09-07T15:13:41.240Z,82.80
2022-09-07T15:15:46.735Z,81.80
2022-09-07T15:17:48.879Z,81.00
2022-09-07T15:19:51.662Z,79.80
2022-09-07T15:21:55.962Z,80.00
2022-09-07T15:24:01.756Z,80.80
2022-09-07T15:26:03.858Z,82.00
2022-09-07T15:28:06.420Z,82.60
2022-09-07T15:30:10.895Z,82.40
2022-09-07T15:32:13.130Z,82.00
2022-09-07T15:34:18.152Z,81.60
2022-09-07T15:36:20.466Z,81.80
2022-09-07T15:41:18.088Z,82.90
2022-09-07T15:43:20.351Z,83.60
2022-09-07T15:45:23.548Z,82.30
2022-09-07T15:49:51.348Z,81.50
2022-09-07T15:52:08.932Z,81.50
2022-09-07T15:54:14.750Z,81.40
2022-09-07T15:56:17.251Z,81.70
2022-09-07T15:58:22.315Z,82.40
2022-09-07T16:00:24.358Z,81.90
2022-09-07T16:04:48.568Z,82.20
2022-09-07T16:06:50.574Z,83.30
2022-09-07T16:08:53.226Z,82.50
2022-09-07T16:10:55.950Z,81.40
2022-09-07T16:13:16.757Z,80.30
2022-09-07T16:15:19.114Z,80.00
2022-09-07T16:17:34.651Z,80.30
2022-09-07T16:19:40.945Z,80.10
2022-09-07T16:21:43.238Z,80.60
2022-09-07T16:23:48.821Z,80.60
2022-09-07T16:25:58.872Z,81.60
2022-09-07T16:28:00.759Z,81.90
2022-09-07T16:30:03.037Z,81.10
2022-09-07T16:34:27.139Z,80.70
2022-09-07T16:36:30.351Z,81.50
2022-09-07T16:38:47.768Z,81.80
2022-09-07T16:40:50.100Z,82.80
2022-09-07T16:42:52.081Z,82.80
2022-09-07T16:46:02.198Z,82.30
2022-09-07T16:47:16.959Z,82.10
2022-09-07T16:49:19.696Z,82.00
2022-09-07T16:51:25.696Z,82.10
2022-09-07T16:53:32.610Z,82.60
2022-09-07T16:55:34.592Z,82.70
2022-09-07T16:59:58.439Z,82.70
2022-09-07T17:02:00.369Z,83.20
2022-09-07T17:04:06.768Z,84.20
2022-09-07T17:06:14.153Z,84.40
2022-09-07T17:08:16.085Z,84.40
2022-09-07T17:10:18.296Z,84.70
2022-09-07T17:12:20.209Z,84.80
2022-09-07T17:14:22.174Z,84.60
2022-09-07T17:16:28.396Z,84.80
2022-09-07T17:20:58.767Z,86.90
2022-09-07T17:23:01.607Z,88.10
2022-09-07T17:25:03.896Z,89.10
2022-09-07T17:27:06.215Z,90.80
2022-09-07T17:29:08.230Z,91.90
2022-09-07T17:32:24.007Z,92.60
2022-09-07T17:33:41.619Z,93.60
2022-09-07T17:35:43.661Z,93.90
2022-09-07T17:37:45.625Z,94.50
2022-09-07T17:39:47.727Z,95.00
2022-09-07T17:41:54.626Z,95.80
2022-09-07T17:44:00.075Z,96.40
2022-09-07T17:46:10.162Z,96.90
2022-09-07T17:48:12.161Z,97.50
2022-09-07T17:50:14.154Z,97.70
2022-09-07T17:52:16.142Z,98.00
2022-09-07T17:54:20.376Z,98.40
2022-09-07T17:56:22.737Z,98.60
2022-09-07T17:58:25.293Z,98.80
2022-09-07T18:00:27.252Z,98.90
2022-09-07T18:02:31.764Z,98.90
2022-09-07T18:04:35.977Z,98.70
2022-09-07T18:06:40.225Z,98.60
2022-09-07T18:08:42.201Z,98.90
2022-09-07T18:13:06.817Z,99.70
2022-09-07T18:15:09.637Z,99.90
2022-09-07T18:17:11.597Z,99.90
2022-09-07T18:19:14.122Z,99.90
2022-09-07T18:21:27.325Z,99.90
2022-09-07T18:23:29.284Z,99.90
2022-09-07T18:25:31.196Z,99.90
2022-09-07T18:27:34.390Z,99.90
2022-09-07T18:29:36.972Z,99.90
2022-09-07T18:31:39.134Z,99.90
2022-09-07T18:33:42.005Z,99.90
2022-09-07T18:35:47.092Z,99.90
2022-09-07T18:37:50.087Z,99.90
2022-09-07T18:39:52.232Z,99.90
2022-09-07T18:41:55.041Z,99.70
2022-09-07T18:43:56.985Z,99.40
2022-09-07T18:46:12.767Z,99.40
2022-09-07T18:48:15.566Z,99.90
2022-09-07T18:50:17.725Z,99.90
2022-09-07T18:54:42.807Z,99.90
2022-09-07T18:56:45.058Z,99.90
2022-09-07T18:58:48.051Z,99.90
2022-09-07T19:00:54.778Z,99.90
2022-09-07T19:02:56.713Z,99.90
2022-09-07T19:07:21.010Z,99.90
2022-09-07T19:09:22.975Z,99.90
2022-09-07T19:11:26.886Z,99.90
2022-09-07T19:13:29.055Z,99.90
2022-09-07T19:15:37.137Z,99.90
2022-09-07T19:17:39.822Z,99.90
2022-09-07T19:19:42.226Z,99.90
2022-09-07T19:21:44.522Z,99.90
2022-09-07T19:23:53.967Z,99.90
2022-09-07T19:25:58.702Z,99.90
2022-09-07T19:28:00.736Z,99.90
2022-09-07T19:30:02.862Z,99.90
2022-09-07T19:32:04.996Z,99.90
2022-09-07T19:34:07.330Z,99.90
2022-09-07T19:36:09.468Z,99.90
2022-09-07T19:38:12.708Z,99.90
2022-09-07T19:40:19.052Z,99.90
2022-09-07T19:42:22.325Z,99.90
2022-09-07T19:44:24.407Z,99.90
2022-09-07T19:46:30.069Z,99.90
2022-09-07T19:48:32.846Z,99.90
2022-09-07T19:50:35.044Z,99.90
2022-09-07T19:52:37.146Z,99.90
2022-09-07T19:54:40.668Z,99.90
2022-09-07T19:56:44.776Z,99.90
2022-09-07T19:58:46.925Z,99.90
2022-09-07T20:00:50.688Z,99.90
2022-09-07T20:02:54.253Z,99.90
2022-09-07T20:04:56.382Z,99.90
2022-09-07T20:06:58.349Z,99.90
2022-09-07T20:09:05.653Z,99.90
2022-09-07T20:11:10.877Z,99.90
2022-09-07T20:13:13.004Z,99.90
2022-09-07T20:15:15.379Z,99.90
2022-09-07T20:17:17.352Z,99.90
2022-09-07T20:19:19.363Z,99.90
2022-09-07T20:21:23.339Z,99.90
2022-09-07T20:23:25.201Z,99.90
2022-09-07T20:25:30.770Z,99.90
2022-09-07T20:27:35.923Z,99.90
2022-09-07T20:29:38.527Z,99.90
2022-09-07T20:31:40.718Z,99.90
2022-09-07T20:33:44.228Z,99.90
2022-09-07T20:35:47.687Z,99.90
2022-09-07T20:37:49.758Z,99.90
2022-09-07T20:39:51.802Z,99.90
2022-09-07T20:41:53.958Z,99.90
2022-09-07T20:43:59.086Z,99.90
2022-09-07T20:46:01.035Z,99.90
2022-09-07T20:48:03.377Z,99.90
2022-09-07T20:50:06.479Z,99.90
2022-09-07T20:52:08.481Z,99.90
2022-09-07T20:54:10.482Z,99.90
2022-09-07T20:56:15.703Z,99.90
2022-09-07T20:58:17.825Z,99.90
2022-09-07T21:00:19.953Z,99.90
2022-09-07T21:02:22.127Z,99.90
2022-09-07T21:04:26.478Z,99.90
2022-09-07T21:06:29.526Z,99.90
2022-09-07T21:08:35.306Z,99.90
2022-09-07T21:10:41.777Z,99.90
2022-09-07T21:12:44.128Z,99.90
2022-09-07T21:14:46.920Z,99.90
2022-09-07T21:16:49.107Z,99.90
2022-09-07T21:18:55.407Z,99.90
2022-09-07T21:21:18.760Z,99.90
2022-09-07T21:23:19.607Z,99.90
2022-09-07T21:25:21.527Z,99.90
2022-09-07T21:27:24.046Z,99.90
2022-09-07T21:29:26.080Z,99.90
2022-09-07T21:31:29.910Z,99.90
2022-09-07T21:33:33.919Z,99.90
2022-09-07T21:35:35.757Z,99.90
2022-09-07T21:37:38.410Z,99.90
2022-09-07T21:39:40.601Z,99.90
2022-09-07T21:41:43.652Z,99.90
2022-09-07T21:43:45.881Z,99.90
2022-09-07T21:45:47.746Z,99.90
2022-09-07T21:47:49.877Z,99.90
2022-09-07T21:49:52.166Z,99.90
2022-09-07T21:51:54.918Z,99.90
2022-09-07T21:53:59.452Z,99.90
2022-09-07T21:56:06.473Z,99.90
2022-09-07T21:58:11.183Z,99.90
2022-09-07T22:00:13.840Z,99.90
2022-09-07T22:02:16.174Z,99.90
2022-09-07T22:04:18.700Z,99.90
2022-09-07T22:06:23.693Z,99.90
2022-09-07T22:10:45.093Z,99.90
2022-09-07T22:12:46.998Z,99.90
2022-09-07T22:14:48.950Z,99.90
2022-09-07T22:16:50.829Z,99.90
2022-09-07T22:18:52.760Z,99.90
2022-09-07T22:21:22.607Z,99.90
2022-09-07T22:23:24.517Z,99.90
2022-09-07T22:25:27.141Z,99.90
2022-09-07T22:27:29.089Z,99.90
2022-09-07T22:29:30.978Z,99.90
2022-09-07T22:31:34.665Z,99.90
2022-09-07T22:33:36.701Z,99.90
2022-09-07T22:35:38.720Z,99.90
2022-09-07T22:37:40.666Z,99.90
2022-09-07T22:39:42.618Z,99.90
2022-09-07T22:41:46.132Z,99.90
2022-09-07T22:43:51.062Z,99.90
2022-09-07T22:45:53.055Z,99.90
2022-09-07T22:47:54.973Z,99.90
2022-09-07T22:49:56.858Z,99.90
2022-09-07T22:51:59.518Z,99.90
2022-09-07T22:54:01.470Z,99.90
2022-09-07T22:56:11.311Z,99.90
2022-09-07T22:58:13.231Z,99.90
2022-09-07T23:00:15.440Z,99.90
2022-09-07T23:02:17.260Z,99.90
2022-09-07T23:04:19.283Z,99.90
2022-09-07T23:06:28.487Z,99.90
2022-09-07T23:08:30.839Z,99.90
2022-09-07T23:10:36.942Z,99.90
2022-09-07T23:12:40.456Z,99.90
2022-09-07T23:14:42.397Z,99.90
2022-09-07T23:16:45.164Z,99.90
2022-09-07T23:18:48.339Z,99.90
2022-09-07T23:20:50.364Z,99.90
2022-09-07T23:22:53.130Z,99.90
2022-09-07T23:24:55.103Z,99.90
2022-09-07T23:26:57.057Z,99.90
2022-09-07T23:29:04.521Z,99.90
2022-09-07T23:31:10.200Z,99.90
2022-09-07T23:33:12.191Z,99.90
2022-09-07T23:35:16.723Z,99.90
2022-09-07T23:37:18.936Z,99.90
2022-09-07T23:39:20.954Z,99.90
2022-09-07T23:41:23.472Z,99.90
2022-09-07T23:43:27.399Z,99.90
2022-09-07T23:45:29.881Z,99.90
2022-09-07T23:47:31.809Z,99.90
2022-09-07T23:49:33.720Z,99.90
2022-09-07T23:51:36.120Z,99.90
2022-09-07T23:53:39.033Z,99.90
2022-09-07T23:55:42.273Z,99.90
2022-09-07T23:57:44.164Z,99.90
2022-09-07T23:59:46.080Z,99.90
